createdAt,value
2023-05-15T00:00:09.214Z,2575.00
2023-05-15T00:01:09.186Z,2734.00
2023-05-15T00:02:09.250Z,2722.00
2023-05-15T00:03:09.253Z,2674.00
2023-05-15T00:04:09.213Z,2598.00
2023-05-15T00:05:09.331Z,2664.00
2023-05-15T00:06:09.297Z,2706.00
2023-05-15T00:07:09.336Z,2822.00
2023-05-15T00:08:09.398Z,2735.00
2023-05-15T00:09:09.416Z,2431.00
2023-05-15T00:10:09.461Z,2394.00
2023-05-15T00:11:09.486Z,2466.00
2023-05-15T00:12:09.464Z,2587.00
2023-05-15T00:13:09.542Z,2571.00
2023-05-15T00:14:09.536Z,2589.00
2023-05-15T00:15:09.647Z,2331.00
2023-05-15T00:16:09.645Z,2236.00
2023-05-15T00:17:09.605Z,2441.00
2023-05-15T00:18:09.712Z,2635.00
2023-05-15T00:19:09.695Z,2689.00
2023-05-15T00:20:09.617Z,2657.00
2023-05-15T00:21:09.655Z,2674.00
2023-05-15T00:22:09.711Z,2647.00
2023-05-15T00:23:09.768Z,2597.00
2023-05-15T00:24:09.806Z,2568.00
2023-05-15T00:25:09.858Z,2581.00
2023-05-15T00:26:09.930Z,2685.00
2023-05-15T00:27:09.977Z,2575.00
2023-05-15T00:28:10.036Z,2683.00
2023-05-15T00:29:10.114Z,2727.00
2023-05-15T00:30:10.168Z,2834.00
2023-05-15T00:31:10.241Z,2852.00
2023-05-15T00:32:10.295Z,2866.00
2023-05-15T00:33:10.347Z,2865.00
2023-05-15T00:34:10.401Z,2847.00
2023-05-15T00:35:10.440Z,2858.00
2023-05-15T00:36:10.507Z,2399.00
2023-05-15T00:37:10.576Z,2247.00
2023-05-15T00:38:10.624Z,2309.00
2023-05-15T00:39:10.659Z,2444.00
2023-05-15T00:40:10.773Z,2643.00
2023-05-15T00:41:10.824Z,2741.00
2023-05-15T00:42:10.861Z,2800.00
2023-05-15T00:43:10.921Z,2975.00
2023-05-15T00:44:10.969Z,2996.00
2023-05-15T00:45:11.016Z,3007.00
2023-05-15T00:46:11.078Z,2864.00
2023-05-15T00:47:11.180Z,2717.00
2023-05-15T00:48:11.168Z,2745.00
2023-05-15T00:49:11.214Z,2564.00
2023-05-15T00:50:11.258Z,2524.00
2023-05-15T00:51:11.227Z,2600.00
2023-05-15T00:52:11.236Z,2613.00
2023-05-15T00:53:11.244Z,2501.00
2023-05-15T00:54:11.322Z,2443.00
2023-05-15T00:55:11.334Z,2467.00
2023-05-15T00:56:11.387Z,2461.00
2023-05-15T00:57:11.483Z,2407.00
2023-05-15T00:58:11.522Z,2342.00
2023-05-15T00:59:11.538Z,2220.00
2023-05-15T01:00:11.552Z,2193.00
2023-05-15T01:01:11.617Z,2251.00
2023-05-15T01:02:11.615Z,2373.00
2023-05-15T01:03:11.965Z,2507.00
2023-05-15T01:04:11.530Z,2622.00
2023-05-15T01:05:12.334Z,2725.00
2023-05-15T01:06:11.597Z,2790.00
2023-05-15T01:07:12.340Z,2815.00
2023-05-15T01:08:11.637Z,2936.00
2023-05-15T01:09:11.660Z,2831.00
2023-05-15T01:10:11.976Z,2383.00
2023-05-15T01:11:11.725Z,2100.00
2023-05-15T01:12:11.782Z,2022.00
2023-05-15T01:13:11.783Z,1961.00
2023-05-15T01:14:11.908Z,2164.00
2023-05-15T01:15:11.898Z,2244.00
2023-05-15T01:16:11.915Z,2314.00
2023-05-15T01:17:12.021Z,2446.00
2023-05-15T01:18:12.035Z,2608.00
2023-05-15T01:19:12.037Z,2497.00
2023-05-15T01:20:11.943Z,2462.00
2023-05-15T01:21:12.015Z,2489.00
2023-05-15T01:22:12.059Z,2430.00
2023-05-15T01:23:12.119Z,2441.00
2023-05-15T01:24:12.160Z,2525.00
2023-05-15T01:25:12.210Z,2544.00
2023-05-15T01:26:12.200Z,2506.00
2023-05-15T01:27:12.404Z,2451.00
2023-05-15T01:28:12.299Z,2603.00
2023-05-15T01:29:12.354Z,2732.00
2023-05-15T01:30:12.424Z,2777.00
2023-05-15T01:31:12.551Z,2879.00
2023-05-15T01:32:12.592Z,2912.00
2023-05-15T01:33:12.592Z,2941.00
2023-05-15T01:34:12.671Z,2926.00
2023-05-15T01:35:12.741Z,2899.00
2023-05-15T01:36:12.775Z,2696.00
2023-05-15T01:37:12.857Z,2569.00
2023-05-15T01:38:12.904Z,2634.00
2023-05-15T01:39:12.956Z,2672.00
2023-05-15T01:40:12.996Z,2686.00
2023-05-15T01:41:13.116Z,2760.00
2023-05-15T01:42:13.130Z,2841.00
2023-05-15T01:43:13.125Z,2824.00
2023-05-15T01:44:13.191Z,2678.00
2023-05-15T01:45:13.185Z,2392.00
2023-05-15T01:46:13.251Z,2053.00
2023-05-15T01:47:13.271Z,1936.00
2023-05-15T01:48:13.265Z,2024.00
2023-05-15T01:49:13.304Z,2029.00
2023-05-15T01:50:13.305Z,2017.00
2023-05-15T01:51:13.348Z,2029.00
2023-05-15T01:52:13.397Z,2058.00
2023-05-15T01:53:13.386Z,2066.00
2023-05-15T01:54:13.385Z,1995.00
2023-05-15T01:55:13.381Z,2057.00
2023-05-15T01:56:13.388Z,2207.00
2023-05-15T01:57:13.428Z,2322.00
2023-05-15T01:58:13.353Z,2419.00
2023-05-15T01:59:13.469Z,2665.00
2023-05-15T02:00:13.368Z,2363.00
2023-05-15T02:01:13.442Z,2329.00
2023-05-15T02:02:13.450Z,2429.00
2023-05-15T02:03:13.494Z,2490.00
2023-05-15T02:04:13.389Z,2468.00
2023-05-15T02:05:13.390Z,2352.00
2023-05-15T02:06:13.400Z,2414.00
2023-05-15T02:07:13.401Z,2464.00
2023-05-15T02:08:13.407Z,2569.00
2023-05-15T02:09:13.434Z,2510.00
2023-05-15T02:10:13.497Z,2354.00
2023-05-15T02:11:13.511Z,2139.00
2023-05-15T02:12:13.575Z,2066.00
2023-05-15T02:13:13.516Z,2149.00
2023-05-15T02:14:13.496Z,2186.00
2023-05-15T02:15:13.504Z,2280.00
2023-05-15T02:16:13.598Z,2267.00
2023-05-15T02:17:13.557Z,2248.00
2023-05-15T02:18:13.547Z,2369.00
2023-05-15T02:19:13.669Z,2590.00
2023-05-15T02:20:13.616Z,2658.00
2023-05-15T02:21:13.637Z,2665.00
2023-05-15T02:22:13.698Z,2654.00
2023-05-15T02:23:21.371Z,2580.00
2023-05-15T02:24:13.716Z,2583.00
2023-05-15T02:25:13.709Z,2576.00
2023-05-15T02:26:13.761Z,2566.00
2023-05-15T02:27:13.686Z,2530.00
2023-05-15T02:28:13.667Z,2509.00
2023-05-15T02:29:13.681Z,2584.00
2023-05-15T02:30:13.652Z,2629.00
2023-05-15T02:31:13.721Z,2650.00
2023-05-15T02:32:13.761Z,2670.00
2023-05-15T02:33:13.668Z,2562.00
2023-05-15T02:34:13.616Z,2521.00
2023-05-15T02:35:13.676Z,2222.00
2023-05-15T02:36:13.629Z,2157.00
2023-05-15T02:37:13.607Z,2153.00
2023-05-15T02:38:13.595Z,2257.00
2023-05-15T02:39:13.604Z,2375.00
2023-05-15T02:40:13.594Z,2486.00
2023-05-15T02:41:13.564Z,2456.00
2023-05-15T02:42:13.564Z,2369.00
2023-05-15T02:43:13.574Z,2097.00
2023-05-15T02:44:13.632Z,1818.00
2023-05-15T02:45:13.593Z,1718.00
2023-05-15T02:46:13.611Z,1746.00
2023-05-15T02:47:13.551Z,1807.00
2023-05-15T02:48:13.550Z,1841.00
2023-05-15T02:49:13.575Z,2014.00
2023-05-15T02:50:13.546Z,2234.00
2023-05-15T02:51:13.487Z,2367.00
2023-05-15T02:52:13.517Z,2413.00
2023-05-15T02:53:13.528Z,2456.00
2023-05-15T02:54:13.501Z,2597.00
2023-05-15T02:55:13.496Z,2758.00
2023-05-15T02:56:13.519Z,2928.00
2023-05-15T02:57:13.475Z,3049.00
2023-05-15T02:58:13.450Z,3174.00
2023-05-15T02:59:13.493Z,3059.00
2023-05-15T03:00:13.454Z,2852.00
2023-05-15T03:01:13.420Z,2956.00
2023-05-15T03:02:13.477Z,2846.00
2023-05-15T03:03:13.455Z,2677.00
2023-05-15T03:04:13.502Z,2684.00
2023-05-15T03:05:13.469Z,2609.00
2023-05-15T03:06:13.449Z,2446.00
2023-05-15T03:07:13.503Z,2454.00
2023-05-15T03:08:13.500Z,2080.00
2023-05-15T03:09:13.541Z,1947.00
2023-05-15T03:10:13.499Z,1952.00
2023-05-15T03:12:21.524Z,2126.00
2023-05-15T03:13:13.522Z,2134.00
2023-05-15T03:14:13.524Z,2182.00
2023-05-15T03:15:13.486Z,2279.00
2023-05-15T03:16:13.556Z,2221.00
2023-05-15T03:17:13.618Z,2227.00
2023-05-15T03:18:13.880Z,2284.00
2023-05-15T03:19:13.582Z,2393.00
2023-05-15T03:20:13.490Z,2402.00
2023-05-15T03:21:13.471Z,2572.00
2023-05-15T03:22:13.501Z,2570.00
2023-05-15T03:23:13.451Z,2556.00
2023-05-15T03:24:13.477Z,2590.00
2023-05-15T03:25:13.515Z,2660.00
2023-05-15T03:26:13.526Z,2859.00
2023-05-15T03:27:13.606Z,2948.00
2023-05-15T03:28:13.638Z,3050.00
2023-05-15T03:29:13.630Z,3118.00
2023-05-15T03:30:13.647Z,3025.00
2023-05-15T03:31:13.708Z,3067.00
2023-05-15T03:32:13.736Z,3018.00
2023-05-15T03:33:13.658Z,2866.00
2023-05-15T03:34:13.643Z,2787.00
2023-05-15T03:35:13.680Z,2839.00
2023-05-15T03:36:13.670Z,2784.00
2023-05-15T03:37:13.718Z,2834.00
2023-05-15T03:38:13.763Z,2948.00
2023-05-15T03:39:13.784Z,2972.00
2023-05-15T03:40:13.803Z,2954.00
2023-05-15T03:41:13.796Z,3033.00
2023-05-15T03:42:13.801Z,3076.00
2023-05-15T03:43:13.817Z,3044.00
2023-05-15T03:44:13.859Z,3101.00
2023-05-15T03:45:13.881Z,3125.00
2023-05-15T03:46:13.954Z,3014.00
2023-05-15T03:47:13.995Z,3025.00
2023-05-15T03:48:14.064Z,2979.00
2023-05-15T03:49:14.083Z,3016.00
2023-05-15T03:50:14.106Z,3079.00
2023-05-15T03:51:14.117Z,3059.00
2023-05-15T03:52:14.162Z,3020.00
2023-05-15T03:53:14.203Z,3060.00
2023-05-15T03:54:14.161Z,3133.00
2023-05-15T03:55:14.129Z,3265.00
2023-05-15T03:56:14.156Z,3242.00
2023-05-15T03:57:14.248Z,3105.00
2023-05-15T03:58:14.255Z,2715.00
2023-05-15T03:59:14.312Z,2460.00
2023-05-15T04:00:15.514Z,2553.00
2023-05-15T04:01:14.340Z,2874.00
2023-05-15T04:02:14.460Z,3127.00
2023-05-15T04:03:14.636Z,3321.00
2023-05-15T04:04:14.489Z,3525.00
2023-05-15T04:05:14.557Z,3589.00
2023-05-15T04:06:14.521Z,3720.00
2023-05-15T04:07:14.604Z,3800.00
2023-05-15T04:08:14.599Z,3904.00
2023-05-15T04:09:14.604Z,3963.00
2023-05-15T04:10:14.638Z,4018.00
2023-05-15T04:11:14.679Z,3958.00
2023-05-15T04:12:14.668Z,3887.00
2023-05-15T04:13:14.723Z,3830.00
2023-05-15T04:14:14.734Z,3814.00
2023-05-15T04:15:14.785Z,3754.00
2023-05-15T04:16:14.827Z,3770.00
2023-05-15T04:17:14.798Z,3737.00
2023-05-15T04:18:14.786Z,3677.00
2023-05-15T04:19:14.888Z,3625.00
2023-05-15T04:20:14.806Z,3451.00
2023-05-15T04:21:14.887Z,3504.00
2023-05-15T04:22:14.983Z,3406.00
2023-05-15T04:23:14.938Z,3342.00
2023-05-15T04:24:14.929Z,3052.00
2023-05-15T04:25:15.219Z,2918.00
2023-05-15T04:26:15.001Z,2724.00
2023-05-15T04:27:15.041Z,2819.00
2023-05-15T04:28:15.030Z,2883.00
2023-05-15T04:29:15.088Z,2701.00
2023-05-15T04:30:15.082Z,2668.00
2023-05-15T04:31:15.105Z,2820.00
2023-05-15T04:32:15.194Z,2890.00
2023-05-15T04:33:15.245Z,2905.00
2023-05-15T04:34:15.224Z,2965.00
2023-05-15T04:35:15.292Z,3017.00
2023-05-15T04:36:15.325Z,3159.00
2023-05-15T04:37:15.357Z,3366.00
2023-05-15T04:38:15.407Z,3434.00
2023-05-15T04:39:15.379Z,3513.00
2023-05-15T04:40:15.422Z,3604.00
2023-05-15T04:41:15.401Z,3719.00
2023-05-15T04:42:15.467Z,3762.00
2023-05-15T04:43:15.478Z,3849.00
2023-05-15T04:44:15.553Z,3946.00
2023-05-15T04:45:15.556Z,4043.00
2023-05-15T04:46:15.704Z,3926.00
2023-05-15T04:47:15.689Z,3912.00
2023-05-15T04:48:15.674Z,4042.00
2023-05-15T04:49:15.988Z,3905.00
2023-05-15T04:50:15.788Z,3236.00
2023-05-15T04:51:15.871Z,2863.00
2023-05-15T04:52:15.911Z,2694.00
2023-05-15T04:53:15.920Z,2820.00
2023-05-15T04:54:16.228Z,3219.00
2023-05-15T04:55:15.966Z,3410.00
2023-05-15T04:56:15.977Z,3505.00
2023-05-15T04:57:16.086Z,3554.00
2023-05-15T04:58:16.044Z,3649.00
2023-05-15T04:59:16.043Z,3777.00
2023-05-15T05:00:16.064Z,3978.00
2023-05-15T05:01:16.135Z,4121.00
2023-05-15T05:02:16.116Z,4044.00
2023-05-15T05:03:16.217Z,4027.00
2023-05-15T05:04:16.339Z,3831.00
2023-05-15T05:05:16.210Z,3584.00
2023-05-15T05:06:16.123Z,3551.00
2023-05-15T05:07:16.445Z,3399.00
2023-05-15T05:08:16.199Z,3302.00
2023-05-15T05:09:16.255Z,2838.00
2023-05-15T05:10:16.428Z,2416.00
2023-05-15T05:11:16.274Z,2270.00
2023-05-15T05:12:16.372Z,2224.00
2023-05-15T05:13:16.412Z,2263.00
2023-05-15T05:14:16.488Z,2296.00
2023-05-15T05:15:16.537Z,2258.00
2023-05-15T05:16:16.633Z,2408.00
2023-05-15T05:17:16.673Z,2482.00
2023-05-15T05:18:16.827Z,2682.00
2023-05-15T05:19:16.845Z,2818.00
2023-05-15T05:20:16.944Z,2950.00
2023-05-15T05:21:16.819Z,3101.00
2023-05-15T05:22:16.923Z,3164.00
2023-05-15T05:23:17.095Z,3196.00
2023-05-15T05:24:17.077Z,3042.00
2023-05-15T05:25:17.089Z,2866.00
2023-05-15T05:26:17.204Z,2914.00
2023-05-15T05:27:17.201Z,2935.00
2023-05-15T05:28:17.222Z,3089.00
2023-05-15T05:29:17.311Z,3101.00
2023-05-15T05:30:17.355Z,3127.00
2023-05-15T05:31:17.533Z,3146.00
2023-05-15T05:32:17.641Z,3288.00
2023-05-15T05:33:17.574Z,3333.00
2023-05-15T05:34:17.548Z,3518.00
2023-05-15T05:35:17.564Z,3492.00
2023-05-15T05:36:17.690Z,3231.00
2023-05-15T05:37:17.697Z,3020.00
2023-05-15T05:38:18.062Z,2958.00
2023-05-15T05:39:17.783Z,3009.00
2023-05-15T05:40:18.007Z,3044.00
2023-05-15T05:41:17.906Z,3302.00
2023-05-15T05:42:17.978Z,3418.00
2023-05-15T05:43:18.083Z,3377.00
2023-05-15T05:44:18.158Z,3353.00
2023-05-15T05:45:18.113Z,3324.00
2023-05-15T05:47:45.323Z,500.00
2023-05-15T05:48:37.636Z,500.00
2023-05-15T05:49:37.568Z,500.00
2023-05-15T05:50:38.474Z,500.00
2023-05-15T05:51:37.668Z,500.00
2023-05-15T05:52:37.800Z,500.00
2023-05-15T05:53:37.672Z,520.00
2023-05-15T05:54:37.566Z,523.00
2023-05-15T05:55:37.562Z,546.00
2023-05-15T05:56:37.512Z,585.00
2023-05-15T05:57:37.528Z,620.00
2023-05-15T05:58:37.789Z,651.00
2023-05-15T05:59:37.489Z,886.00
2023-05-15T06:00:37.501Z,958.00
2023-05-15T06:01:37.512Z,905.00
2023-05-15T06:02:37.608Z,940.00
2023-05-15T06:03:37.561Z,934.00
2023-05-15T06:04:37.474Z,1100.00
2023-05-15T06:05:37.472Z,1209.00
2023-05-15T06:06:37.458Z,1161.00
2023-05-15T06:07:37.478Z,1057.00
2023-05-15T06:08:38.115Z,746.00
2023-05-15T06:09:37.463Z,748.00
2023-05-15T06:10:37.480Z,655.00
2023-05-15T06:11:37.488Z,633.00
2023-05-15T06:12:37.519Z,657.00
2023-05-15T06:13:37.901Z,660.00
2023-05-15T06:14:37.521Z,634.00
2023-05-15T06:15:37.588Z,658.00
2023-05-15T06:16:37.735Z,952.00
2023-05-15T06:17:37.822Z,1138.00
2023-05-15T06:18:37.868Z,1255.00
2023-05-15T06:19:37.821Z,1209.00
2023-05-15T06:20:37.911Z,1225.00
2023-05-15T06:21:37.913Z,1132.00
2023-05-15T06:22:38.083Z,1205.00
2023-05-15T06:23:38.166Z,1217.00
2023-05-15T06:24:38.152Z,1046.00
2023-05-15T06:25:38.143Z,1023.00
2023-05-15T06:26:38.289Z,931.00
2023-05-15T06:27:38.295Z,1013.00
2023-05-15T06:28:38.388Z,1030.00
2023-05-15T06:29:38.431Z,985.00
2023-05-15T06:30:38.557Z,849.00
2023-05-15T06:31:38.542Z,642.00
2023-05-15T06:32:38.656Z,555.00
2023-05-15T06:33:38.617Z,501.00
2023-05-15T06:34:38.614Z,495.00
2023-05-15T06:35:38.648Z,499.00
2023-05-15T06:36:38.685Z,526.00
2023-05-15T06:37:38.753Z,564.00
2023-05-15T06:38:38.808Z,659.00
2023-05-15T06:39:38.912Z,803.00
2023-05-15T06:40:38.929Z,929.00
2023-05-15T06:41:38.850Z,1041.00
2023-05-15T06:42:39.078Z,1102.00
2023-05-15T06:43:39.353Z,1117.00
2023-05-15T06:44:39.068Z,1003.00
2023-05-15T06:45:39.058Z,1013.00
2023-05-15T06:46:39.954Z,1143.00
2023-05-15T06:47:39.090Z,1216.00
2023-05-15T06:48:39.174Z,1046.00
2023-05-15T06:49:39.179Z,823.00
2023-05-15T06:50:39.196Z,856.00
2023-05-15T06:51:39.314Z,901.00
2023-05-15T06:52:39.317Z,976.00
2023-05-15T06:53:39.820Z,1052.00
2023-05-15T06:54:39.393Z,1114.00
2023-05-15T06:55:39.448Z,1198.00
2023-05-15T06:56:39.539Z,1166.00
2023-05-15T06:57:39.544Z,1149.00
2023-05-15T06:58:39.854Z,1003.00
2023-05-15T06:59:39.551Z,878.00
2023-05-15T07:00:39.668Z,943.00
2023-05-15T07:01:39.777Z,1163.00
2023-05-15T07:02:39.731Z,1256.00
2023-05-15T07:03:39.772Z,1035.00
2023-05-15T07:04:39.739Z,643.00
2023-05-15T07:05:39.781Z,631.00
2023-05-15T07:06:39.728Z,612.00
2023-05-15T07:07:39.818Z,556.00
2023-05-15T07:08:39.766Z,538.00
2023-05-15T07:09:39.814Z,557.00
2023-05-15T07:10:39.839Z,499.00
2023-05-15T07:11:39.802Z,478.00
2023-05-15T07:12:39.832Z,524.00
2023-05-15T07:13:40.373Z,589.00
2023-05-15T07:14:39.799Z,647.00
2023-05-15T07:15:39.873Z,628.00
2023-05-15T07:16:39.877Z,581.00
2023-05-15T07:17:39.930Z,576.00
2023-05-15T07:18:40.003Z,550.00
2023-05-15T07:19:39.988Z,599.00
2023-05-15T07:20:40.074Z,619.00
2023-05-15T07:21:39.998Z,555.00
2023-05-15T07:22:51.944Z,568.00
2023-05-15T07:23:41.085Z,572.00
2023-05-15T07:24:40.783Z,591.00
2023-05-15T07:25:40.049Z,523.00
2023-05-15T07:26:50.157Z,461.00
2023-05-15T07:27:41.005Z,472.00
2023-05-15T07:28:40.096Z,422.00
2023-05-15T07:29:40.402Z,400.00
2023-05-15T07:30:40.041Z,474.00
2023-05-15T07:31:40.091Z,492.00
2023-05-15T07:32:40.002Z,456.00
2023-05-15T07:33:39.972Z,444.00
2023-05-15T07:34:40.832Z,562.00
2023-05-15T07:35:40.012Z,562.00
2023-05-15T07:36:40.013Z,501.00
2023-05-15T07:37:40.132Z,521.00
2023-05-15T07:38:40.053Z,505.00
2023-05-15T07:39:40.681Z,496.00
2023-05-15T07:40:40.164Z,460.00
2023-05-15T07:41:40.131Z,400.00
2023-05-15T07:42:40.140Z,400.00
2023-05-15T07:43:40.179Z,400.00
2023-05-15T07:44:41.385Z,458.00
2023-05-15T07:45:40.341Z,504.00
2023-05-15T07:46:40.259Z,582.00
2023-05-15T07:47:40.326Z,707.00
2023-05-15T07:48:40.211Z,625.00
2023-05-15T07:49:40.352Z,857.00
2023-05-15T07:50:40.324Z,974.00
2023-05-15T07:51:40.156Z,627.00
2023-05-15T07:52:40.200Z,562.00
2023-05-15T07:53:40.236Z,662.00
2023-05-15T07:54:40.260Z,568.00
2023-05-15T07:55:40.187Z,747.00
2023-05-15T07:56:40.207Z,1000.00
2023-05-15T07:57:40.158Z,947.00
2023-05-15T07:58:40.204Z,934.00
2023-05-15T07:59:40.163Z,805.00
2023-05-15T08:00:40.190Z,821.00
2023-05-15T08:01:40.130Z,667.00
2023-05-15T08:02:40.362Z,484.00
2023-05-15T08:03:40.260Z,443.00
2023-05-15T08:04:40.285Z,484.00
2023-05-15T08:05:40.097Z,525.00
2023-05-15T08:06:41.174Z,600.00
2023-05-15T08:07:40.818Z,601.00
2023-05-15T08:08:40.326Z,581.00
2023-05-15T08:09:40.354Z,534.00
2023-05-15T08:10:40.343Z,514.00
2023-05-15T08:11:40.408Z,560.00
2023-05-15T08:12:40.468Z,598.00
2023-05-15T08:13:40.560Z,616.00
2023-05-15T08:14:40.730Z,627.00
2023-05-15T08:15:40.698Z,676.00
2023-05-15T08:16:40.690Z,825.00
2023-05-15T08:17:40.779Z,650.00
2023-05-15T08:18:40.984Z,644.00
2023-05-15T08:19:41.312Z,400.00
2023-05-15T08:20:40.844Z,442.00
2023-05-15T08:21:40.898Z,500.00
2023-05-15T08:22:40.960Z,400.00
2023-05-15T08:23:40.960Z,400.00
2023-05-15T08:24:41.091Z,400.00
2023-05-15T08:25:41.016Z,493.00
2023-05-15T08:26:41.024Z,650.00
2023-05-15T08:27:41.108Z,662.00
2023-05-15T08:28:41.076Z,700.00
2023-05-15T08:29:41.153Z,902.00
2023-05-15T08:30:42.827Z,927.00
2023-05-15T08:31:41.320Z,592.00
2023-05-15T08:32:41.312Z,519.00
2023-05-15T08:33:41.313Z,500.00
2023-05-15T08:34:41.904Z,540.00
2023-05-15T08:35:41.465Z,532.00
2023-05-15T08:36:41.401Z,548.00
2023-05-15T08:37:41.441Z,718.00
2023-05-15T08:38:41.454Z,965.00
2023-05-15T08:39:41.833Z,1193.00
2023-05-15T08:40:41.473Z,817.00
2023-05-15T08:41:41.392Z,676.00
2023-05-15T08:42:41.390Z,718.00
2023-05-15T08:43:41.494Z,640.00
2023-05-15T08:44:41.455Z,593.00
2023-05-15T08:45:42.338Z,680.00
2023-05-15T08:46:41.615Z,780.00
2023-05-15T08:47:41.542Z,873.00
2023-05-15T08:48:41.598Z,657.00
2023-05-15T08:49:42.328Z,566.00
2023-05-15T08:50:41.742Z,514.00
2023-05-15T08:51:41.799Z,523.00
2023-05-15T08:52:41.872Z,407.00
2023-05-15T08:53:41.879Z,474.00
2023-05-15T08:54:42.381Z,666.00
2023-05-15T08:55:41.988Z,626.00
2023-05-15T08:56:42.096Z,513.00
2023-05-15T08:57:42.212Z,558.00
2023-05-15T08:58:42.201Z,800.00
2023-05-15T08:59:42.352Z,529.00
2023-05-15T09:00:42.335Z,585.00
2023-05-15T09:01:42.365Z,846.00
2023-05-15T09:02:42.633Z,1094.00
2023-05-15T09:03:42.494Z,1078.00
2023-05-15T09:04:42.860Z,1084.00
2023-05-15T09:05:42.563Z,898.00
2023-05-15T09:06:42.587Z,933.00
2023-05-15T09:07:42.501Z,1370.00
2023-05-15T09:08:42.598Z,1432.00
2023-05-15T09:09:42.598Z,1537.00
2023-05-15T09:10:42.605Z,1292.00
2023-05-15T09:11:42.711Z,1032.00
2023-05-15T09:12:42.723Z,1294.00
2023-05-15T09:13:42.801Z,1646.00
2023-05-15T09:14:43.884Z,1347.00
2023-05-15T09:15:43.698Z,1161.00
2023-05-15T09:16:43.082Z,1169.00
2023-05-15T09:17:43.090Z,1106.00
2023-05-15T09:18:43.046Z,1178.00
2023-05-15T09:19:43.193Z,1332.00
2023-05-15T09:20:43.182Z,1087.00
2023-05-15T09:21:43.203Z,1028.00
2023-05-15T09:22:43.210Z,850.00
2023-05-15T09:23:43.257Z,944.00
2023-05-15T09:24:43.356Z,1060.00
2023-05-15T09:25:43.270Z,955.00
2023-05-15T09:26:43.447Z,1104.00
2023-05-15T09:27:44.348Z,1107.00
2023-05-15T09:28:43.293Z,1121.00
2023-05-15T09:29:45.336Z,1215.00
2023-05-15T09:30:43.361Z,1363.00
2023-05-15T09:31:43.379Z,1481.00
2023-05-15T09:32:43.400Z,1710.00
2023-05-15T09:33:43.332Z,1124.00
2023-05-15T09:34:43.383Z,729.00
2023-05-15T09:35:43.413Z,633.00
2023-05-15T09:36:43.491Z,665.00
2023-05-15T09:37:43.441Z,741.00
2023-05-15T09:38:43.434Z,939.00
2023-05-15T09:39:43.589Z,798.00
2023-05-15T09:40:43.454Z,955.00
2023-05-15T09:41:43.538Z,864.00
2023-05-15T09:42:43.559Z,946.00
2023-05-15T09:43:43.648Z,996.00
2023-05-15T09:44:43.748Z,1140.00
2023-05-15T09:45:43.776Z,1323.00
2023-05-15T09:46:43.818Z,1509.00
2023-05-15T09:47:43.807Z,1570.00
2023-05-15T09:48:43.951Z,1636.00
2023-05-15T09:49:43.825Z,1785.00
2023-05-15T09:50:43.907Z,2118.00
2023-05-15T09:51:43.911Z,2164.00
2023-05-15T09:52:43.924Z,2194.00
2023-05-15T09:53:43.943Z,2021.00
2023-05-15T09:54:43.968Z,2068.00
2023-05-15T09:55:44.459Z,1885.00
2023-05-15T09:56:43.926Z,1755.00
2023-05-15T09:57:43.945Z,1430.00
2023-05-15T09:58:44.064Z,1515.00
2023-05-15T09:59:44.486Z,1586.00
2023-05-15T10:00:48.694Z,1762.00
2023-05-15T10:01:45.170Z,1766.00
2023-05-15T10:02:44.221Z,1781.00
2023-05-15T10:03:44.134Z,1813.00
2023-05-15T10:04:44.120Z,1948.00
2023-05-15T10:05:44.749Z,2189.00
2023-05-15T10:06:44.067Z,2153.00
2023-05-15T10:07:44.008Z,1903.00
2023-05-15T10:08:44.018Z,1910.00
2023-05-15T10:09:44.342Z,1741.00
2023-05-15T10:10:44.702Z,1547.00
2023-05-15T10:11:44.053Z,1674.00
2023-05-15T10:12:44.054Z,1667.00
2023-05-15T10:13:44.164Z,1276.00
2023-05-15T10:14:44.161Z,947.00
2023-05-15T10:15:44.837Z,832.00
2023-05-15T10:16:44.319Z,1115.00
2023-05-15T10:17:44.304Z,888.00
2023-05-15T10:18:44.318Z,957.00
2023-05-15T10:19:56.809Z,1298.00
2023-05-15T10:20:45.362Z,1305.00
2023-05-15T10:21:44.419Z,1333.00
2023-05-15T10:22:45.276Z,1401.00
2023-05-15T10:23:44.331Z,1660.00
2023-05-15T10:24:45.365Z,1971.00
2023-05-15T10:25:44.344Z,1459.00
2023-05-15T10:26:44.349Z,973.00
2023-05-15T10:27:44.250Z,749.00
2023-05-15T10:28:45.023Z,861.00
2023-05-15T10:29:44.328Z,723.00
2023-05-15T10:30:44.868Z,642.00
2023-05-15T10:31:44.620Z,616.00
2023-05-15T10:32:44.501Z,633.00
2023-05-15T10:33:44.443Z,589.00
2023-05-15T10:34:44.724Z,569.00
2023-05-15T10:35:44.882Z,435.00
2023-05-15T10:36:44.627Z,441.00
2023-05-15T10:37:44.639Z,552.00
2023-05-15T10:38:45.367Z,529.00
2023-05-15T10:39:44.646Z,654.00
2023-05-15T10:40:44.686Z,843.00
2023-05-15T10:41:44.743Z,881.00
2023-05-15T10:42:44.818Z,744.00
2023-05-15T10:43:44.883Z,913.00
2023-05-15T10:44:44.882Z,937.00
2023-05-15T10:45:45.409Z,1034.00
2023-05-15T10:46:45.069Z,879.00
2023-05-15T10:47:45.000Z,762.00
2023-05-15T10:48:45.056Z,834.00
2023-05-15T10:49:45.140Z,626.00
2023-05-15T10:50:45.415Z,630.00
2023-05-15T10:51:45.285Z,784.00
2023-05-15T10:52:45.260Z,1062.00
2023-05-15T10:53:45.263Z,857.00
2023-05-15T10:54:45.263Z,874.00
2023-05-15T10:55:45.304Z,1036.00
2023-05-15T10:56:45.355Z,676.00
2023-05-15T10:57:45.412Z,476.00
2023-05-15T10:58:45.420Z,452.00
2023-05-15T10:59:45.407Z,477.00
2023-05-15T11:00:45.971Z,422.00
2023-05-15T11:01:45.609Z,476.00
2023-05-15T11:02:45.562Z,523.00
2023-05-15T11:03:49.493Z,583.00
2023-05-15T11:04:46.789Z,587.00
2023-05-15T11:05:45.650Z,607.00
2023-05-15T11:06:45.774Z,625.00
2023-05-15T11:07:45.673Z,631.00
2023-05-15T11:08:45.616Z,657.00
2023-05-15T11:09:45.672Z,736.00
2023-05-15T11:10:45.880Z,753.00
2023-05-15T11:11:45.587Z,1060.00
2023-05-15T11:12:45.693Z,1370.00
2023-05-15T11:13:45.586Z,1244.00
2023-05-15T11:14:45.703Z,1678.00
2023-05-15T11:15:45.840Z,854.00
2023-05-15T11:16:45.877Z,478.00
2023-05-15T11:17:45.880Z,400.00
2023-05-15T11:18:45.862Z,400.00
2023-05-15T11:19:45.819Z,400.00
2023-05-15T11:20:45.872Z,400.00
2023-05-15T11:21:45.927Z,400.00
2023-05-15T11:22:45.952Z,400.00
2023-05-15T11:23:45.981Z,536.00
2023-05-15T11:24:45.887Z,568.00
2023-05-15T11:25:46.407Z,596.00
2023-05-15T11:26:45.967Z,576.00
2023-05-15T11:27:46.044Z,577.00
2023-05-15T11:28:46.009Z,642.00
2023-05-15T11:29:46.026Z,552.00
2023-05-15T11:30:48.017Z,746.00
2023-05-15T11:31:45.948Z,892.00
2023-05-15T11:32:46.062Z,1179.00
2023-05-15T11:33:46.076Z,1233.00
2023-05-15T11:34:45.968Z,1710.00
2023-05-15T11:35:45.944Z,1758.00
2023-05-15T11:36:46.378Z,1900.00
2023-05-15T11:37:45.972Z,1353.00
2023-05-15T11:38:45.991Z,1394.00
2023-05-15T11:39:47.939Z,1161.00
2023-05-15T11:40:45.930Z,1260.00
2023-05-15T11:41:45.968Z,1365.00
2023-05-15T11:42:45.888Z,1301.00
2023-05-15T11:43:45.915Z,1197.00
2023-05-15T11:44:45.913Z,1250.00
2023-05-15T11:45:45.899Z,1631.00
2023-05-15T11:46:45.942Z,1804.00
2023-05-15T11:47:45.922Z,2063.00
2023-05-15T11:48:45.859Z,2438.00
2023-05-15T11:49:45.845Z,2701.00
2023-05-15T11:50:45.891Z,2775.00
2023-05-15T11:51:45.853Z,3022.00
2023-05-15T11:52:45.839Z,3064.00
2023-05-15T11:53:45.892Z,3515.00
2023-05-15T11:54:45.864Z,3564.00
2023-05-15T11:55:45.870Z,3598.00
2023-05-15T11:56:46.020Z,3357.00
2023-05-15T11:57:46.019Z,3380.00
2023-05-15T11:58:46.138Z,3418.00
2023-05-15T11:59:46.129Z,3522.00
2023-05-15T12:00:46.152Z,3324.00
2023-05-15T12:01:46.159Z,3146.00
2023-05-15T12:02:46.214Z,2992.00
2023-05-15T12:03:46.359Z,2959.00
2023-05-15T12:04:46.350Z,3015.00
2023-05-15T12:05:57.680Z,2885.00
2023-05-15T12:06:47.329Z,2698.00
2023-05-15T12:07:46.309Z,2756.00
2023-05-15T12:08:46.298Z,2964.00
2023-05-15T12:09:46.306Z,2988.00
2023-05-15T12:10:46.268Z,2908.00
2023-05-15T12:11:46.292Z,3094.00
2023-05-15T12:12:46.312Z,3288.00
2023-05-15T12:13:46.286Z,2940.00
2023-05-15T12:14:46.303Z,2734.00
2023-05-15T12:15:46.252Z,2976.00